This is the latest recevied weather packets stored in our database for station/object DL4JCP-6. If no packets are shown the sender has not sent any weather packets the latest 10 day(s).
| Time | Temp. | Humidity | Pressure | Rain* | Wind** | Luminosity | Snow |
|---|---|---|---|---|---|---|---|
| 1777990695 | 15.56° C | 87% | 1008.4 hPa | 0.51 mm | - | - | - |
| 1777990690 | 15.56° C | 87% | 1008.4 hPa | 0.51 mm | - | - | - |
| 1777990390 | 15.56° C | 86% | 1008.4 hPa | 0.25 mm | - | - | - |
| 1777989492 | 16.11° C | 85% | 1008.6 hPa | 0.25 mm | - | - | - |
| 1777988293 | 16.11° C | 84% | 1008.7 hPa | 0.25 mm | - | - | - |
| 1777987994 | 16.11° C | 84% | 1008.7 hPa | 0.25 mm | - | - | - |
| 1777987991 | 16.11° C | 84% | 1008.7 hPa | 0.25 mm | - | - | - |
| 1777987691 | 16.67° C | 82% | 1008.9 hPa | 0.25 mm | - | - | - |
| 1777987392 | 16.67° C | 83% | 1008.9 hPa | 0.25 mm | - | - | - |
| 1777987095 | 16.67° C | 81% | 1009.1 hPa | 0 mm | - | - | - |
| 1777987091 | 16.67° C | 81% | 1009.1 hPa | 0 mm | - | - | - |
| 1777986490 | 17.22° C | 79% | 1009.2 hPa | 0 mm | - | - | - |
| 1777985891 | 17.22° C | 79% | 1009.3 hPa | 0 mm | - | - | - |
| 1777985591 | 17.22° C | 79% | 1009.3 hPa | 0 mm | - | - | - |
| 1777985291 | 17.22° C | 79% | 1009.4 hPa | 0 mm | - | - | - |
| 1777984690 | 17.78° C | 78% | 1009.4 hPa | 0 mm | - | - | - |
| 1777984397 | 17.78° C | 79% | 1009.3 hPa | 0 mm | - | - | - |
| 1777984090 | 17.78° C | 78% | 1009.4 hPa | 0 mm | - | - | - |
| 1777983790 | 18.33° C | 76% | 1009.5 hPa | 0 mm | - | - | - |
| 1777982891 | 18.33° C | 77% | 1009.6 hPa | 0 mm | - | - | - |
| 1777982290 | 18.33° C | 73% | 1009.8 hPa | 0.25 mm | - | - | - |
| 1777981990 | 18.33° C | 74% | 1009.9 hPa | 0.76 mm | - | - | - |
| 1777980797 | 16.67° C | 82% | 1009.9 hPa | 0.76 mm | - | - | - |
| 1777979894 | 16.11° C | 85% | 1010 hPa | 0.76 mm | - | - | - |
| 1777978994 | 16.11° C | 83% | 1009.9 hPa | 0.76 mm | - | - | - |
* Rain latest hour (hover to see other rain measurements)
** Current wind speed in m/s (hover to see current wind gust speed)